sensor_id;sensor_type;location;lat;lon;timestamp;pressure;altitude;pressure_sealevel;temperature;humidity
56074;BME280;41950;55.840;37.442;2023-01-25T00:01:45;101211.31;;;-0.29;76.06
56074;BME280;41950;55.840;37.442;2023-01-25T00:04:11;101173.81;;;-0.48;76.23
56074;BME280;41950;55.840;37.442;2023-01-25T00:06:37;101209.00;;;-0.24;75.89
56074;BME280;41950;55.840;37.442;2023-01-25T00:09:03;101195.78;;;-0.34;75.75
56074;BME280;41950;55.840;37.442;2023-01-25T00:11:29;101198.47;;;-0.31;75.79
56074;BME280;41950;55.840;37.442;2023-01-25T00:13:55;101191.63;;;-0.32;76.03
56074;BME280;41950;55.840;37.442;2023-01-25T00:16:22;101152.75;;;-0.60;76.08
56074;BME280;41950;55.840;37.442;2023-01-25T00:18:48;101189.41;;;-0.42;76.05
56074;BME280;41950;55.840;37.442;2023-01-25T00:21:16;101193.94;;;-0.36;76.11
56074;BME280;41950;55.840;37.442;2023-01-25T00:23:43;101150.88;;;-0.64;76.21
56074;BME280;41950;55.840;37.442;2023-01-25T00:26:09;101195.88;;;-0.48;76.16
56074;BME280;41950;55.840;37.442;2023-01-25T00:28:35;101135.84;;;-0.76;76.31
56074;BME280;41950;55.840;37.442;2023-01-25T00:31:02;101170.16;;;-0.53;76.33
56074;BME280;41950;55.840;37.442;2023-01-25T00:35:59;101153.50;;;-0.63;76.69
56074;BME280;41950;55.840;37.442;2023-01-25T00:38:34;101151.00;;;-0.61;76.63
56074;BME280;41950;55.840;37.442;2023-01-25T00:41:02;101133.34;;;-0.74;76.69
56074;BME280;41950;55.840;37.442;2023-01-25T00:43:28;101159.31;;;-0.65;76.33
56074;BME280;41950;55.840;37.442;2023-01-25T00:46:00;101150.25;;;-0.76;76.47
56074;BME280;41950;55.840;37.442;2023-01-25T00:48:25;101122.53;;;-1.03;76.80
56074;BME280;41950;55.840;37.442;2023-01-25T00:50:51;101137.34;;;-0.96;77.04
56074;BME280;41950;55.840;37.442;2023-01-25T00:53:17;101136.22;;;-1.01;77.26
56074;BME280;41950;55.840;37.442;2023-01-25T00:55:53;101144.75;;;-1.00;77.25
56074;BME280;41950;55.840;37.442;2023-01-25T00:58:19;101108.81;;;-1.21;77.43
56074;BME280;41950;55.840;37.442;2023-01-25T01:00:44;101129.88;;;-1.09;77.34
56074;BME280;41950;55.840;37.442;2023-01-25T01:03:10;101119.84;;;-1.06;77.24
56074;BME280;41950;55.840;37.442;2023-01-25T01:05:35;101141.94;;;-0.88;76.64
56074;BME280;41950;55.840;37.442;2023-01-25T01:08:02;101139.47;;;-0.87;76.55
56074;BME280;41950;55.840;37.442;2023-01-25T01:10:28;101139.63;;;-0.84;76.26
56074;BME280;41950;55.840;37.442;2023-01-25T01:12:54;101121.00;;;-0.83;76.02
56074;BME280;41950;55.840;37.442;2023-01-25T01:15:19;101137.81;;;-0.70;75.77
56074;BME280;41950;55.840;37.442;2023-01-25T01:17:45;101137.81;;;-0.70;75.47
56074;BME280;41950;55.840;37.442;2023-01-25T01:20:12;101134.63;;;-0.66;75.47
56074;BME280;41950;55.840;37.442;2023-01-25T01:22:37;101122.91;;;-0.63;75.32
56074;BME280;41950;55.840;37.442;2023-01-25T01:25:03;101086.38;;;-0.79;75.36
56074;BME280;41950;55.840;37.442;2023-01-25T01:27:29;101101.31;;;-0.69;75.16
56074;BME280;41950;55.840;37.442;2023-01-25T01:29:55;101109.03;;;-0.68;74.76
56074;BME280;41950;55.840;37.442;2023-01-25T01:32:20;101047.69;;;-1.05;74.50
56074;BME280;41950;55.840;37.442;2023-01-25T01:34:46;101066.44;;;-0.86;74.37
56074;BME280;41950;55.840;37.442;2023-01-25T01:37:12;101093.94;;;-0.81;74.20
56074;BME280;41950;55.840;37.442;2023-01-25T01:39:37;101080.22;;;-0.83;74.01
56074;BME280;41950;55.840;37.442;2023-01-25T01:42:03;101099.13;;;-0.79;73.20
56074;BME280;41950;55.840;37.442;2023-01-25T01:45:01;101101.81;;;-0.76;73.25
56074;BME280;41950;55.840;37.442;2023-01-25T01:47:28;101090.53;;;-0.81;73.08
56074;BME280;41950;55.840;37.442;2023-01-25T01:50:00;101090.16;;;-0.71;73.11
56074;BME280;41950;55.840;37.442;2023-01-25T01:52:35;101082.44;;;-0.73;72.83
56074;BME280;41950;55.840;37.442;2023-01-25T01:55:02;101088.84;;;-0.81;73.12
56074;BME280;41950;55.840;37.442;2023-01-25T01:57:34;101077.50;;;-0.86;73.06
56074;BME280;41950;55.840;37.442;2023-01-25T02:00:07;101084.91;;;-0.74;72.87
56074;BME280;41950;55.840;37.442;2023-01-25T02:02:34;101082.69;;;-0.68;72.88
56074;BME280;41950;55.840;37.442;2023-01-25T02:05:03;101082.69;;;-0.68;72.11
56074;BME280;41950;55.840;37.442;2023-01-25T02:07:33;101063.25;;;-0.82;72.12
56074;BME280;41950;55.840;37.442;2023-01-25T02:10:00;101086.97;;;-0.67;72.07
56074;BME280;41950;55.840;37.442;2023-01-25T02:12:27;101063.34;;;-0.81;71.75
56074;BME280;41950;55.840;37.442;2023-01-25T02:14:53;101065.97;;;-0.79;71.79
56074;BME280;41950;55.840;37.442;2023-01-25T02:17:35;101040.66;;;-0.93;72.08
56074;BME280;41950;55.840;37.442;2023-01-25T02:25:27;101064.84;;;-0.84;71.83
56074;BME280;41950;55.840;37.442;2023-01-25T02:28:05;101103.53;;;-0.59;71.74
56074;BME280;41950;55.840;37.442;2023-01-25T02:30:32;101099.56;;;-0.54;71.90
56074;BME280;41950;55.840;37.442;2023-01-25T02:32:58;101099.78;;;-0.49;71.95
56074;BME280;41950;55.840;37.442;2023-01-25T02:35:37;101096.44;;;-0.48;72.06
56074;BME280;41950;55.840;37.442;2023-01-25T02:38:03;101101.44;;;-0.50;72.21
56074;BME280;41950;55.840;37.442;2023-01-25T02:40:30;101081.16;;;-0.65;72.30
56074;BME280;41950;55.840;37.442;2023-01-25T02:42:58;101092.59;;;-0.56;72.47
56074;BME280;41950;55.840;37.442;2023-01-25T02:45:26;101083.03;;;-0.60;72.35
56074;BME280;41950;55.840;37.442;2023-01-25T02:47:54;101101.53;;;-0.48;72.53
56074;BME280;41950;55.840;37.442;2023-01-25T02:50:20;101113.84;;;-0.40;72.75
56074;BME280;41950;55.840;37.442;2023-01-25T02:52:45;101106.19;;;-0.40;72.66
56074;BME280;41950;55.840;37.442;2023-01-25T02:55:11;101109.31;;;-0.45;72.92
56074;BME280;41950;55.840;37.442;2023-01-25T02:57:36;101088.22;;;-0.59;72.85
56074;BME280;41950;55.840;37.442;2023-01-25T03:00:03;101086.47;;;-0.60;73.16
56074;BME280;41950;55.840;37.442;2023-01-25T03:02:30;101103.34;;;-0.46;73.08
56074;BME280;41950;55.840;37.442;2023-01-25T03:04:56;101075.19;;;-0.65;73.05
56074;BME280;41950;55.840;37.442;2023-01-25T03:07:22;101082.31;;;-0.58;73.15
56074;BME280;41950;55.840;37.442;2023-01-25T03:09:47;101089.16;;;-0.41;72.96
56074;BME280;41950;55.840;37.442;2023-01-25T03:12:13;101046.97;;;-0.68;72.93
56074;BME280;41950;55.840;37.442;2023-01-25T03:14:39;101072.19;;;-0.56;73.01
56074;BME280;41950;55.840;37.442;2023-01-25T03:17:04;101069.66;;;-0.56;73.11
56074;BME280;41950;55.840;37.442;2023-01-25T03:19:30;101032.13;;;-0.77;73.25
56074;BME280;41950;55.840;37.442;2023-01-25T03:21:55;101076.59;;;-0.54;73.36
56074;BME280;41950;55.840;37.442;2023-01-25T03:24:23;101047.84;;;-0.68;73.37
56074;BME280;41950;55.840;37.442;2023-01-25T03:26:48;101075.16;;;-0.49;73.27
56074;BME280;41950;55.840;37.442;2023-01-25T03:29:32;101080.81;;;-0.54;73.43
56074;BME280;41950;55.840;37.442;2023-01-25T03:31:58;101078.28;;;-0.54;73.05
56074;BME280;41950;55.840;37.442;2023-01-25T03:34:24;101066.06;;;-0.60;73.24
56074;BME280;41950;55.840;37.442;2023-01-25T03:36:49;101065.28;;;-0.59;73.18
56074;BME280;41950;55.840;37.442;2023-01-25T03:39:15;101079.31;;;-0.51;73.08
56074;BME280;41950;55.840;37.442;2023-01-25T03:41:41;101074.69;;;-0.58;73.18
56074;BME280;41950;55.840;37.442;2023-01-25T03:44:07;101077.28;;;-0.56;73.27
56074;BME280;41950;55.840;37.442;2023-01-25T03:46:36;101082.97;;;-0.62;73.18
56074;BME280;41950;55.840;37.442;2023-01-25T03:49:02;101076.56;;;-0.72;73.43
56074;BME280;41950;55.840;37.442;2023-01-25T03:51:28;101044.50;;;-1.01;73.54
56074;BME280;41950;55.840;37.442;2023-01-25T03:53:53;100987.69;;;-1.32;73.71
56074;BME280;41950;55.840;37.442;2023-01-25T03:56:19;101038.03;;;-0.94;73.78
56074;BME280;41950;55.840;37.442;2023-01-25T03:58:45;100973.03;;;-1.20;73.83
56074;BME280;41950;55.840;37.442;2023-01-25T04:01:11;101066.16;;;-0.58;73.79
56074;BME280;41950;55.840;37.442;2023-01-25T04:03:37;101072.28;;;-0.55;73.64
56074;BME280;41950;55.840;37.442;2023-01-25T04:06:03;101038.38;;;-0.70;73.59
56074;BME280;41950;55.840;37.442;2023-01-25T04:08:29;101042.84;;;-0.66;73.62
56074;BME280;41950;55.840;37.442;2023-01-25T04:11:00;101022.00;;;-0.75;73.46
56074;BME280;41950;55.840;37.442;2023-01-25T04:13:26;101064.81;;;-0.52;73.56
56074;BME280;41950;55.840;37.442;2023-01-25T04:15:52;101070.06;;;-0.49;73.44
56074;BME280;41950;55.840;37.442;2023-01-25T04:18:18;101060.97;;;-0.60;nan
56074;BME280;41950;55.840;37.442;2023-01-25T04:20:44;101051.66;;;-0.59;73.44
56074;BME280;41950;55.840;37.442;2023-01-25T04:23:10;101070.69;;;-0.53;73.33
56074;BME280;41950;55.840;37.442;2023-01-25T04:25:37;101058.78;;;-0.70;73.01
56074;BME280;41950;55.840;37.442;2023-01-25T04:28:03;101054.03;;;-0.80;73.44
56074;BME280;41950;55.840;37.442;2023-01-25T04:30:29;101081.94;;;-0.66;73.53
56074;BME280;41950;55.840;37.442;2023-01-25T04:32:55;101077.44;;;-0.71;73.55
56074;BME280;41950;55.840;37.442;2023-01-25T04:35:21;101069.78;;;-0.71;73.50
56074;BME280;41950;55.840;37.442;2023-01-25T04:37:57;101078.00;;;-0.77;73.59
56074;BME280;41950;55.840;37.442;2023-01-25T04:40:23;101065.03;;;-0.81;73.88
56074;BME280;41950;55.840;37.442;2023-01-25T04:42:48;101081.88;;;-0.83;73.98
56074;BME280;41950;55.840;37.442;2023-01-25T04:45:14;101079.66;;;-0.77;74.00
56074;BME280;41950;55.840;37.442;2023-01-25T04:47:40;101076.19;;;-0.79;73.87
56074;BME280;41950;55.840;37.442;2023-01-25T04:50:05;101084.78;;;-0.77;73.91
56074;BME280;41950;55.840;37.442;2023-01-25T04:52:31;101048.50;;;-1.06;73.85
56074;BME280;41950;55.840;37.442;2023-01-25T04:54:57;101090.34;;;-0.84;73.94
56074;BME280;41950;55.840;37.442;2023-01-25T04:57:23;101082.94;;;-0.80;74.10
56074;BME280;41950;55.840;37.442;2023-01-25T04:59:48;101080.63;;;-0.75;73.91
56074;BME280;41950;55.840;37.442;2023-01-25T05:02:14;101069.78;;;-0.87;73.49
56074;BME280;41950;55.840;37.442;2023-01-25T05:04:39;101080.31;;;-0.81;73.88
56074;BME280;41950;55.840;37.442;2023-01-25T05:07:05;101041.22;;;-0.98;73.74
56074;BME280;41950;55.840;37.442;2023-01-25T05:09:31;101081.72;;;-0.70;73.72
56074;BME280;41950;55.840;37.442;2023-01-25T05:11:56;101043.28;;;-0.91;73.61
56074;BME280;41950;55.840;37.442;2023-01-25T05:14:22;101069.69;;;-0.73;73.41
56074;BME280;41950;55.840;37.442;2023-01-25T05:16:48;101036.34;;;-0.94;73.31
56074;BME280;41950;55.840;37.442;2023-01-25T05:19:13;101040.81;;;-0.89;73.33
56074;BME280;41950;55.840;37.442;2023-01-25T05:21:39;101078.22;;;-0.72;73.28
56074;BME280;41950;55.840;37.442;2023-01-25T05:24:30;101090.03;;;-0.74;73.43
56074;BME280;41950;55.840;37.442;2023-01-25T05:26:56;101079.81;;;-0.74;73.47
56074;BME280;41950;55.840;37.442;2023-01-25T05:29:29;101048.16;;;-0.96;73.46
56074;BME280;41950;55.840;37.442;2023-01-25T05:31:56;101101.31;;;-0.69;73.49
56074;BME280;41950;55.840;37.442;2023-01-25T05:34:22;100938.88;;;-1.58;73.18
56074;BME280;41950;55.840;37.442;2023-01-25T05:36:48;100974.16;;;-1.47;73.59
56074;BME280;41950;55.840;37.442;2023-01-25T05:39:13;101087.72;;;-0.86;73.58
56074;BME280;41950;55.840;37.442;2023-01-25T05:41:39;101073.56;;;-0.97;73.82
56074;BME280;41950;55.840;37.442;2023-01-25T05:44:05;101074.28;;;-1.00;73.94
56074;BME280;41950;55.840;37.442;2023-01-25T05:46:30;100958.03;;;-1.64;74.01
56074;BME280;41950;55.840;37.442;2023-01-25T05:48:56;101039.63;;;-1.12;73.77
56074;BME280;41950;55.840;37.442;2023-01-25T05:51:22;100913.72;;;-1.84;73.72
56074;BME280;41950;55.840;37.442;2023-01-25T05:53:47;101015.00;;;-1.30;73.69
56074;BME280;41950;55.840;37.442;2023-01-25T05:56:13;100914.34;;;-1.72;73.77
56074;BME280;41950;55.840;37.442;2023-01-25T05:58:39;100985.00;;;-1.35;73.56
56074;BME280;41950;55.840;37.442;2023-01-25T06:01:06;101028.84;;;-1.08;73.67
56074;BME280;41950;55.840;37.442;2023-01-25T06:03:32;100987.84;;;-1.29;73.62
56074;BME280;41950;55.840;37.442;2023-01-25T06:06:00;100975.41;;;-1.23;73.57
56074;BME280;41950;55.840;37.442;2023-01-25T06:08:30;101024.03;;;-1.02;73.33
56074;BME280;41950;55.840;37.442;2023-01-25T06:10:56;101024.19;;;-0.99;73.65
56074;BME280;41950;55.840;37.442;2023-01-25T06:13:22;100988.16;;;-1.23;73.29
56074;BME280;41950;55.840;37.442;2023-01-25T06:15:55;101069.94;;;-0.84;73.07
56074;BME280;41950;55.840;37.442;2023-01-25T06:18:22;100964.63;;;-1.51;73.17
56074;BME280;41950;55.840;37.442;2023-01-25T06:20:49;100913.97;;;-1.79;73.17
56074;BME280;41950;55.840;37.442;2023-01-25T06:23:15;101077.13;;;-0.77;73.37
56074;BME280;41950;55.840;37.442;2023-01-25T06:25:41;101081.81;;;-0.69;72.93
56074;BME280;41950;55.840;37.442;2023-01-25T06:28:07;101030.81;;;-1.03;72.73
56074;BME280;41950;55.840;37.442;2023-01-25T06:30:32;100903.88;;;-1.78;72.32
56074;BME280;41950;55.840;37.442;2023-01-25T06:32:59;101030.25;;;-1.13;72.77
56074;BME280;41950;55.840;37.442;2023-01-25T06:35:25;101079.25;;;-0.85;72.78
56074;BME280;41950;55.840;37.442;2023-01-25T06:37:54;101042.59;;;-1.05;72.75
56074;BME280;41950;55.840;37.442;2023-01-25T06:40:20;101085.09;;;-0.87;73.09
56074;BME280;41950;55.840;37.442;2023-01-25T06:42:46;100974.47;;;-1.41;72.59
56074;BME280;41950;55.840;37.442;2023-01-25T06:45:11;101021.28;;;-1.23;72.44
56074;BME280;41950;55.840;37.442;2023-01-25T06:47:38;100930.69;;;-1.84;72.50
56074;BME280;41950;55.840;37.442;2023-01-25T06:50:04;100916.75;;;-1.91;72.48
56074;BME280;41950;55.840;37.442;2023-01-25T06:52:29;100944.28;;;-1.84;72.35
56074;BME280;41950;55.840;37.442;2023-01-25T06:54:56;100951.41;;;-1.93;72.33
56074;BME280;41950;55.840;37.442;2023-01-25T06:57:22;101042.78;;;-1.34;72.69
56074;BME280;41950;55.840;37.442;2023-01-25T06:59:48;100977.59;;;-1.63;72.50
56074;BME280;41950;55.840;37.442;2023-01-25T07:02:14;101077.25;;;-1.08;72.42
56074;BME280;41950;55.840;37.442;2023-01-25T07:04:40;101085.03;;;-1.05;72.65
56074;BME280;41950;55.840;37.442;2023-01-25T07:07:07;100917.06;;;-2.01;72.29
56074;BME280;41950;55.840;37.442;2023-01-25T07:09:34;100922.63;;;-1.92;72.48
56074;BME280;41950;55.840;37.442;2023-01-25T07:12:00;101040.06;;;-1.21;72.47
56074;BME280;41950;55.840;37.442;2023-01-25T07:14:27;101079.09;;;-0.72;72.31
56074;BME280;41950;55.840;37.442;2023-01-25T07:16:52;100932.03;;;-1.59;71.92
56074;BME280;41950;55.840;37.442;2023-01-25T07:19:18;100965.50;;;-1.35;72.09
56074;BME280;41950;55.840;37.442;2023-01-25T07:21:44;100999.75;;;-1.12;71.80
56074;BME280;41950;55.840;37.442;2023-01-25T07:24:13;100940.28;;;-1.46;72.20
56074;BME280;41950;55.840;37.442;2023-01-25T07:26:40;101036.50;;;-0.90;72.20
56074;BME280;41950;55.840;37.442;2023-01-25T07:29:05;101064.97;;;-0.65;72.01
56074;BME280;41950;55.840;37.442;2023-01-25T07:31:33;101042.38;;;-0.75;72.01
56074;BME280;41950;55.840;37.442;2023-01-25T07:33:59;100993.63;;;-0.99;72.08
56074;BME280;41950;55.840;37.442;2023-01-25T07:36:25;100959.78;;;-1.13;72.04
56074;BME280;41950;55.840;37.442;2023-01-25T07:38:55;101000.19;;;-0.86;71.91
56074;BME280;41950;55.840;37.442;2023-01-25T07:41:22;100915.59;;;-1.47;72.02
56074;BME280;41950;55.840;37.442;2023-01-25T07:43:48;100958.53;;;-1.21;72.09
56074;BME280;41950;55.840;37.442;2023-01-25T07:46:13;100980.66;;;-1.04;71.90
56074;BME280;41950;55.840;37.442;2023-01-25T07:48:45;101081.84;;;-0.51;72.18
56074;BME280;41950;55.840;37.442;2023-01-25T07:51:12;100989.81;;;-1.07;72.24
56074;BME280;41950;55.840;37.442;2023-01-25T07:53:49;100992.88;;;-0.97;72.22
56074;BME280;41950;55.840;37.442;2023-01-25T07:56:17;101071.78;;;-0.48;72.17
56074;BME280;41950;55.840;37.442;2023-01-25T07:58:44;101025.34;;;-0.76;72.29
56074;BME280;41950;55.840;37.442;2023-01-25T08:01:13;100944.06;;;-1.22;72.60
56074;BME280;41950;55.840;37.442;2023-01-25T08:03:39;100946.81;;;-1.17;72.64
56074;BME280;41950;55.840;37.442;2023-01-25T08:06:05;101052.09;;;-0.68;72.39
56074;BME280;41950;55.840;37.442;2023-01-25T08:08:32;100912.72;;;-1.37;72.66
56074;BME280;41950;55.840;37.442;2023-01-25T08:11:14;100987.28;;;-0.89;72.54
56074;BME280;41950;55.840;37.442;2023-01-25T08:13:40;100957.16;;;-1.14;72.56
56074;BME280;41950;55.840;37.442;2023-01-25T08:16:11;101028.84;;;-0.74;72.81
56074;BME280;41950;55.840;37.442;2023-01-25T08:18:37;101067.56;;;-0.47;72.73
56074;BME280;41950;55.840;37.442;2023-01-25T08:21:03;100979.06;;;-1.02;72.86
56074;BME280;41950;55.840;37.442;2023-01-25T08:23:29;100996.50;;;-0.75;72.62
56074;BME280;41950;55.840;37.442;2023-01-25T08:25:55;100981.63;;;-0.84;72.53
56074;BME280;41950;55.840;37.442;2023-01-25T08:28:21;100970.41;;;-0.87;72.43
56074;BME280;41950;55.840;37.442;2023-01-25T08:30:47;100915.84;;;-1.09;72.56
56074;BME280;41950;55.840;37.442;2023-01-25T08:33:13;101015.53;;;-0.51;72.15
56074;BME280;41950;55.840;37.442;2023-01-25T08:35:38;101038.34;;;-0.36;72.17
56074;BME280;41950;55.840;37.442;2023-01-25T08:38:04;100965.13;;;-0.74;71.97
56074;BME280;41950;55.840;37.442;2023-01-25T08:40:30;100988.78;;;-0.59;71.88
56074;BME280;41950;55.840;37.442;2023-01-25T08:42:55;100923.28;;;-0.96;72.02
56074;BME280;41950;55.840;37.442;2023-01-25T08:45:21;101042.44;;;-0.22;72.10
56074;BME280;41950;55.840;37.442;2023-01-25T08:47:47;101006.66;;;-0.41;72.01
56074;BME280;41950;55.840;37.442;2023-01-25T08:50:12;101008.81;;;-0.31;71.96
56074;BME280;41950;55.840;37.442;2023-01-25T08:52:38;101033.91;;;-0.22;71.94
56074;BME280;41950;55.840;37.442;2023-01-25T08:55:04;100975.63;;;-0.50;72.02
56074;BME280;41950;55.840;37.442;2023-01-25T08:57:30;101022.78;;;-0.24;72.04
56074;BME280;41950;55.840;37.442;2023-01-25T08:59:56;100991.41;;;-0.40;72.25
56074;BME280;41950;55.840;37.442;2023-01-25T09:02:21;101010.88;;;-0.24;72.25
56074;BME280;41950;55.840;37.442;2023-01-25T09:04:47;100992.22;;;-0.41;72.41
56074;BME280;41950;55.840;37.442;2023-01-25T09:07:13;101012.97;;;-0.33;72.63
56074;BME280;41950;55.840;37.442;2023-01-25T09:09:39;100948.88;;;-0.76;72.61
56074;BME280;41950;55.840;37.442;2023-01-25T09:12:05;100962.50;;;-0.76;73.13
56074;BME280;41950;55.840;37.442;2023-01-25T09:14:30;100997.97;;;-0.45;73.12
56074;BME280;41950;55.840;37.442;2023-01-25T09:16:56;100972.19;;;-0.69;73.15
56074;BME280;41950;55.840;37.442;2023-01-25T09:19:21;100992.28;;;-0.57;73.36
56074;BME280;41950;55.840;37.442;2023-01-25T09:21:47;100979.53;;;-0.75;73.97
56074;BME280;41950;55.840;37.442;2023-01-25T09:24:13;100977.19;;;-0.70;74.05
56074;BME280;41950;55.840;37.442;2023-01-25T09:26:41;100963.28;;;-0.77;74.00
56074;BME280;41950;55.840;37.442;2023-01-25T09:29:07;100978.88;;;-0.71;74.04
56074;BME280;41950;55.840;37.442;2023-01-25T09:31:37;100982.31;;;-0.70;74.16
56074;BME280;41950;55.840;37.442;2023-01-25T09:34:09;100976.13;;;-0.75;74.18
56074;BME280;41950;55.840;37.442;2023-01-25T09:36:36;100970.78;;;-0.80;74.44
56074;BME280;41950;55.840;37.442;2023-01-25T09:39:03;100938.06;;;-0.88;74.49
56074;BME280;41950;55.840;37.442;2023-01-25T09:46:44;100951.56;;;-0.55;73.52
56074;BME280;41950;55.840;37.442;2023-01-25T09:49:26;100951.34;;;-0.60;73.90
56074;BME280;41950;55.840;37.442;2023-01-25T09:52:04;100946.31;;;-0.58;73.81
56074;BME280;41950;55.840;37.442;2023-01-25T09:54:39;100905.22;;;-0.82;73.58
56074;BME280;41950;55.840;37.442;2023-01-25T09:57:18;100936.09;;;-0.58;73.89
56074;BME280;41950;55.840;37.442;2023-01-25T09:59:47;100930.72;;;-0.65;73.30
56074;BME280;41950;55.840;37.442;2023-01-25T10:02:30;100929.13;;;-0.80;73.68
56074;BME280;41950;55.840;37.442;2023-01-25T10:05:06;100929.53;;;-0.89;74.05
56074;BME280;41950;55.840;37.442;2023-01-25T10:10:08;100925.19;;;-0.74;74.03
56074;BME280;41950;55.840;37.442;2023-01-25T10:12:36;100930.38;;;-0.72;73.86
56074;BME280;41950;55.840;37.442;2023-01-25T10:15:36;100925.63;;;-0.82;74.17
56074;BME280;41950;55.840;37.442;2023-01-25T10:20:56;100924.84;;;-0.81;74.57
56074;BME280;41950;55.840;37.442;2023-01-25T10:26:03;100928.75;;;-0.88;74.94
56074;BME280;41950;55.840;37.442;2023-01-25T10:28:48;100927.81;;;-0.90;75.00
56074;BME280;41950;55.840;37.442;2023-01-25T10:31:51;100924.38;;;-0.90;75.16
56074;BME280;41950;55.840;37.442;2023-01-25T10:37:09;100900.31;;;-1.13;75.54
56074;BME280;41950;55.840;37.442;2023-01-25T10:39:41;100910.59;;;-1.12;75.72
56074;BME280;41950;55.840;37.442;2023-01-25T10:42:11;100897.69;;;-1.15;75.49
56074;BME280;41950;55.840;37.442;2023-01-25T10:44:38;100892.28;;;-1.05;75.27
56074;BME280;41950;55.840;37.442;2023-01-25T10:47:25;100894.66;;;-0.90;74.71
56074;BME280;41950;55.840;37.442;2023-01-25T10:49:57;100860.75;;;-1.07;74.70
56074;BME280;41950;55.840;37.442;2023-01-25T10:52:28;100880.78;;;-0.97;74.83
56074;BME280;41950;55.840;37.442;2023-01-25T10:57:50;100881.66;;;-0.96;75.25
56074;BME280;41950;55.840;37.442;2023-01-25T11:00:27;100889.50;;;-0.91;75.34
56074;BME280;41950;55.840;37.442;2023-01-25T11:02:57;100872.69;;;-0.88;75.34
56074;BME280;41950;55.840;37.442;2023-01-25T11:08:34;100883.69;;;-0.89;75.16
56074;BME280;41950;55.840;37.442;2023-01-25T11:11:30;100875.09;;;-0.91;75.38
56074;BME280;41950;55.840;37.442;2023-01-25T11:13:56;100871.88;;;-0.87;75.36
56074;BME280;41950;55.840;37.442;2023-01-25T11:16:35;100853.31;;;-0.84;74.96
56074;BME280;41950;55.840;37.442;2023-01-25T11:19:20;100860.59;;;-0.74;74.78
56074;BME280;41950;55.840;37.442;2023-01-25T11:21:52;100872.59;;;-0.89;74.46
56074;BME280;41950;55.840;37.442;2023-01-25T11:24:18;100859.00;;;-0.90;74.76
56074;BME280;41950;55.840;37.442;2023-01-25T11:26:44;100824.91;;;-1.10;74.09
56074;BME280;41950;55.840;37.442;2023-01-25T11:31:39;100854.09;;;-0.85;73.61
56074;BME280;41950;55.840;37.442;2023-01-25T11:34:14;100849.47;;;-0.76;73.15
56074;BME280;41950;55.840;37.442;2023-01-25T11:37:11;100814.13;;;-0.86;71.96
56074;BME280;41950;55.840;37.442;2023-01-25T11:47:39;100837.88;;;-0.87;70.21
56074;BME280;41950;55.840;37.442;2023-01-25T11:50:26;100837.94;;;-0.86;70.32
56074;BME280;41950;55.840;37.442;2023-01-25T11:53:19;100838.19;;;-0.81;70.36
56074;BME280;41950;55.840;37.442;2023-01-25T12:01:19;100835.19;;;-0.90;70.27
56074;BME280;41950;55.840;37.442;2023-01-25T12:07:03;100820.19;;;-1.20;70.81
56074;BME280;41950;55.840;37.442;2023-01-25T12:12:49;100826.03;;;-1.05;71.02
56074;BME280;41950;55.840;37.442;2023-01-25T12:24:04;100802.97;;;-1.08;70.12
56074;BME280;41950;55.840;37.442;2023-01-25T12:32:10;100778.56;;;-1.20;70.16
56074;BME280;41950;55.840;37.442;2023-01-25T12:34:40;100794.94;;;-0.98;70.26
56074;BME280;41950;55.840;37.442;2023-01-25T12:37:20;100785.31;;;-0.85;70.03
56074;BME280;41950;55.840;37.442;2023-01-25T12:39:54;100780.72;;;-0.75;69.96
56074;BME280;41950;55.840;37.442;2023-01-25T12:42:31;100783.88;;;-0.61;69.65
56074;BME280;41950;55.840;37.442;2023-01-25T12:45:19;100793.78;;;-0.67;68.58
56074;BME280;41950;55.840;37.442;2023-01-25T12:50:41;100773.34;;;-1.06;69.26
56074;BME280;41950;55.840;37.442;2023-01-25T12:55:47;100778.97;;;-0.94;69.55
56074;BME280;41950;55.840;37.442;2023-01-25T13:03:47;100786.81;;;-0.71;69.32
56074;BME280;41950;55.840;37.442;2023-01-25T13:11:49;100775.53;;;-0.76;69.79
56074;BME280;41950;55.840;37.442;2023-01-25T13:16:42;100766.34;;;-0.73;69.80
56074;BME280;41950;55.840;37.442;2023-01-25T13:21:57;100762.88;;;-0.75;70.04
56074;BME280;41950;55.840;37.442;2023-01-25T13:24:25;100748.44;;;-0.74;70.12
56074;BME280;41950;55.840;37.442;2023-01-25T13:29:43;100737.72;;;-0.67;70.06
56074;BME280;41950;55.840;37.442;2023-01-25T13:34:58;100733.09;;;-0.76;70.41
56074;BME280;41950;55.840;37.442;2023-01-25T13:37:26;100718.66;;;-0.75;70.33
56074;BME280;41950;55.840;37.442;2023-01-25T13:42:27;100710.00;;;-0.79;70.68
56074;BME280;41950;55.840;37.442;2023-01-25T13:45:01;100711.03;;;-0.75;70.81
56074;BME280;41950;55.840;37.442;2023-01-25T13:47:35;100699.22;;;-0.73;70.77
56074;BME280;41950;55.840;37.442;2023-01-25T13:50:21;100695.59;;;-0.78;70.89
56074;BME280;41950;55.840;37.442;2023-01-25T13:55:39;100683.91;;;-0.93;71.36
56074;BME280;41950;55.840;37.442;2023-01-25T13:58:43;100659.16;;;-0.95;71.36
56074;BME280;41950;55.840;37.442;2023-01-25T14:01:12;100672.09;;;-0.90;71.49
56074;BME280;41950;55.840;37.442;2023-01-25T14:03:46;100688.75;;;-0.79;71.79
56074;BME280;41950;55.840;37.442;2023-01-25T14:06:21;100684.03;;;-0.89;71.85
56074;BME280;41950;55.840;37.442;2023-01-25T14:08:48;100675.44;;;-0.91;71.96
56074;BME280;41950;55.840;37.442;2023-01-25T14:11:22;100695.38;;;-0.83;72.01
56074;BME280;41950;55.840;37.442;2023-01-25T14:16:43;100699.25;;;-0.91;72.33
56074;BME280;41950;55.840;37.442;2023-01-25T14:19:23;100679.00;;;-1.07;72.60
56074;BME280;41950;55.840;37.442;2023-01-25T14:21:49;100691.28;;;-0.99;72.91
56074;BME280;41950;55.840;37.442;2023-01-25T14:24:34;100670.75;;;-1.02;73.14
56074;BME280;41950;55.840;37.442;2023-01-25T14:26:59;100652.72;;;-1.06;72.93
56074;BME280;41950;55.840;37.442;2023-01-25T14:29:25;100688.38;;;-0.87;72.90
56074;BME280;41950;55.840;37.442;2023-01-25T14:31:50;100670.09;;;-0.98;72.99